sensor_id;sensor_type;location;lat;lon;timestamp;temperature;humidity
71436;SHT31;59251;51.326;12.370;2024-03-23T00:54:27;13.05;86.04
71436;SHT31;59251;51.326;12.370;2024-03-23T00:56:54;12.89;86.05
71436;SHT31;59251;51.326;12.370;2024-03-23T00:59:20;13.03;85.64
71436;SHT31;59251;51.326;12.370;2024-03-23T01:01:47;13.12;85.49
71436;SHT31;59251;51.326;12.370;2024-03-23T01:04:13;12.80;86.12
71436;SHT31;59251;51.326;12.370;2024-03-23T01:06:40;12.75;86.02
71436;SHT31;59251;51.326;12.370;2024-03-23T01:09:05;12.91;85.72
71436;SHT31;59251;51.326;12.370;2024-03-23T01:11:37;12.58;86.61
71436;SHT31;59251;51.326;12.370;2024-03-23T01:14:03;12.88;86.03
71436;SHT31;59251;51.326;12.370;2024-03-23T01:16:29;13.05;85.71
71436;SHT31;59251;51.326;12.370;2024-03-23T01:18:55;13.09;85.67
71436;SHT31;59251;51.326;12.370;2024-03-23T01:21:22;12.87;86.17
71436;SHT31;59251;51.326;12.370;2024-03-23T01:23:47;12.89;86.30
71436;SHT31;59251;51.326;12.370;2024-03-23T01:26:14;12.80;86.52
71436;SHT31;59251;51.326;12.370;2024-03-23T01:28:41;12.44;86.88
71436;SHT31;59251;51.326;12.370;2024-03-23T01:31:08;12.71;86.29
71436;SHT31;59251;51.326;12.370;2024-03-23T01:33:34;12.53;86.68
71436;SHT31;59251;51.326;12.370;2024-03-23T01:36:00;12.45;86.42
71436;SHT31;59251;51.326;12.370;2024-03-23T01:38:26;12.37;86.41
71436;SHT31;59251;51.326;12.370;2024-03-23T01:40:56;12.40;85.62
71436;SHT31;59251;51.326;12.370;2024-03-23T01:43:22;12.19;85.31
71436;SHT31;59251;51.326;12.370;2024-03-23T01:45:50;12.30;85.10
71436;SHT31;59251;51.326;12.370;2024-03-23T01:48:19;11.95;85.48
71436;SHT31;59251;51.326;12.370;2024-03-23T01:50:46;12.00;85.71
71436;SHT31;59251;51.326;12.370;2024-03-23T01:53:12;11.99;85.48
71436;SHT31;59251;51.326;12.370;2024-03-23T01:55:42;12.03;85.16
71436;SHT31;59251;51.326;12.370;2024-03-23T01:58:08;12.16;85.31
71436;SHT31;59251;51.326;12.370;2024-03-23T02:00:35;12.27;85.12
71436;SHT31;59251;51.326;12.370;2024-03-23T02:03:02;12.07;85.55
71436;SHT31;59251;51.326;12.370;2024-03-23T02:05:29;11.99;85.98
71436;SHT31;59251;51.326;12.370;2024-03-23T02:07:55;12.09;85.93
71436;SHT31;59251;51.326;12.370;2024-03-23T02:10:22;11.83;86.70
71436;SHT31;59251;51.326;12.370;2024-03-23T02:12:47;11.75;86.87
71436;SHT31;59251;51.326;12.370;2024-03-23T02:15:14;11.85;86.74
71436;SHT31;59251;51.326;12.370;2024-03-23T02:17:40;12.02;86.08
71436;SHT31;59251;51.326;12.370;2024-03-23T02:20:11;11.90;86.23
71436;SHT31;59251;51.326;12.370;2024-03-23T02:22:37;11.99;86.06
71436;SHT31;59251;51.326;12.370;2024-03-23T02:25:06;11.90;85.77
71436;SHT31;59251;51.326;12.370;2024-03-23T02:27:32;11.72;85.98
71436;SHT31;59251;51.326;12.370;2024-03-23T02:30:00;11.72;85.56
71436;SHT31;59251;51.326;12.370;2024-03-23T02:32:25;11.72;85.39
71436;SHT31;59251;51.326;12.370;2024-03-23T02:34:52;11.92;84.80
71436;SHT31;59251;51.326;12.370;2024-03-23T02:37:18;11.58;85.25
71436;SHT31;59251;51.326;12.370;2024-03-23T02:39:45;11.57;85.68
71436;SHT31;59251;51.326;12.370;2024-03-23T02:42:12;11.58;85.75
71436;SHT31;59251;51.326;12.370;2024-03-23T02:44:38;11.28;85.77
71436;SHT31;59251;51.326;12.370;2024-03-23T02:47:05;11.72;85.40
71436;SHT31;59251;51.326;12.370;2024-03-23T02:49:32;11.71;85.16
71436;SHT31;59251;51.326;12.370;2024-03-23T02:51:58;11.79;84.93
71436;SHT31;59251;51.326;12.370;2024-03-23T02:54:24;11.76;85.16
71436;SHT31;59251;51.326;12.370;2024-03-23T02:56:50;11.82;84.89
71436;SHT31;59251;51.326;12.370;2024-03-23T02:59:18;12.00;84.48
71436;SHT31;59251;51.326;12.370;2024-03-23T03:01:44;12.05;84.33
71436;SHT31;59251;51.326;12.370;2024-03-23T03:04:10;11.66;84.69
71436;SHT31;59251;51.326;12.370;2024-03-23T03:06:37;11.86;84.74
71436;SHT31;59251;51.326;12.370;2024-03-23T03:09:02;11.90;84.12
71436;SHT31;59251;51.326;12.370;2024-03-23T03:11:29;12.03;83.64
71436;SHT31;59251;51.326;12.370;2024-03-23T03:13:57;12.10;83.62
71436;SHT31;59251;51.326;12.370;2024-03-23T03:16:26;11.90;83.17
71436;SHT31;59251;51.326;12.370;2024-03-23T03:18:53;11.66;83.87
71436;SHT31;59251;51.326;12.370;2024-03-23T03:21:19;11.61;84.87
71436;SHT31;59251;51.326;12.370;2024-03-23T03:23:46;12.02;83.47
71436;SHT31;59251;51.326;12.370;2024-03-23T03:26:11;11.69;83.57
71436;SHT31;59251;51.326;12.370;2024-03-23T03:28:38;11.58;83.55
71436;SHT31;59251;51.326;12.370;2024-03-23T03:31:04;11.47;83.42
71436;SHT31;59251;51.326;12.370;2024-03-23T03:33:32;11.78;83.02
71436;SHT31;59251;51.326;12.370;2024-03-23T03:35:58;11.85;82.54
71436;SHT31;59251;51.326;12.370;2024-03-23T03:38:24;11.37;82.61
71436;SHT31;59251;51.326;12.370;2024-03-23T03:40:50;11.34;82.84
71436;SHT31;59251;51.326;12.370;2024-03-23T03:43:18;11.48;82.76
71436;SHT31;59251;51.326;12.370;2024-03-23T03:45:51;11.44;82.34
71436;SHT31;59251;51.326;12.370;2024-03-23T03:48:18;11.75;81.66
71436;SHT31;59251;51.326;12.370;2024-03-23T03:50:45;11.61;81.75
71436;SHT31;59251;51.326;12.370;2024-03-23T03:53:12;11.21;81.99
71436;SHT31;59251;51.326;12.370;2024-03-23T03:55:37;11.16;81.93
71436;SHT31;59251;51.326;12.370;2024-03-23T03:58:04;11.41;81.30
71436;SHT31;59251;51.326;12.370;2024-03-23T04:00:30;11.30;81.84
71436;SHT31;59251;51.326;12.370;2024-03-23T04:02:57;11.41;81.80
71436;SHT31;59251;51.326;12.370;2024-03-23T04:05:23;11.55;81.37
71436;SHT31;59251;51.326;12.370;2024-03-23T04:07:51;11.44;81.02
71436;SHT31;59251;51.326;12.370;2024-03-23T04:10:17;11.58;80.48
71436;SHT31;59251;51.326;12.370;2024-03-23T04:12:43;11.65;80.61
71436;SHT31;59251;51.326;12.370;2024-03-23T04:15:10;11.97;79.59
71436;SHT31;59251;51.326;12.370;2024-03-23T04:17:37;11.66;79.12
71436;SHT31;59251;51.326;12.370;2024-03-23T04:20:03;11.37;80.77
71436;SHT31;59251;51.326;12.370;2024-03-23T04:22:34;11.37;80.64
71436;SHT31;59251;51.326;12.370;2024-03-23T04:25:01;11.62;80.63
71436;SHT31;59251;51.326;12.370;2024-03-23T04:27:32;11.64;80.03
71436;SHT31;59251;51.326;12.370;2024-03-23T04:29:57;11.64;80.36
71436;SHT31;59251;51.326;12.370;2024-03-23T04:32:26;11.65;80.82
71436;SHT31;59251;51.326;12.370;2024-03-23T04:34:52;11.72;80.62
71436;SHT31;59251;51.326;12.370;2024-03-23T04:37:18;11.79;80.07
71436;SHT31;59251;51.326;12.370;2024-03-23T04:39:45;11.54;80.83
71436;SHT31;59251;51.326;12.370;2024-03-23T04:42:14;11.76;80.38
71436;SHT31;59251;51.326;12.370;2024-03-23T04:44:41;11.42;80.16
71436;SHT31;59251;51.326;12.370;2024-03-23T04:47:08;11.26;80.14
71436;SHT31;59251;51.326;12.370;2024-03-23T04:49:38;11.55;80.07
71436;SHT31;59251;51.326;12.370;2024-03-23T04:52:04;11.81;79.84
71436;SHT31;59251;51.326;12.370;2024-03-23T04:54:31;11.85;79.52
71436;SHT31;59251;51.326;12.370;2024-03-23T04:56:59;11.72;80.02
71436;SHT31;59251;51.326;12.370;2024-03-23T04:59:27;11.68;80.31
71436;SHT31;59251;51.326;12.370;2024-03-23T05:01:53;11.37;81.59
71436;SHT31;59251;51.326;12.370;2024-03-23T05:04:19;11.78;80.80
71436;SHT31;59251;51.326;12.370;2024-03-23T05:06:45;11.59;81.10
71436;SHT31;59251;51.326;12.370;2024-03-23T05:09:12;11.65;81.12
71436;SHT31;59251;51.326;12.370;2024-03-23T05:11:38;11.65;81.32
71436;SHT31;59251;51.326;12.370;2024-03-23T05:14:05;11.58;81.67
71436;SHT31;59251;51.326;12.370;2024-03-23T05:16:32;11.89;81.08
71436;SHT31;59251;51.326;12.370;2024-03-23T05:18:58;11.64;81.87
71436;SHT31;59251;51.326;12.370;2024-03-23T05:21:24;11.44;82.77
71436;SHT31;59251;51.326;12.370;2024-03-23T05:23:51;11.52;82.46
71436;SHT31;59251;51.326;12.370;2024-03-23T05:26:17;11.37;83.25
71436;SHT31;59251;51.326;12.370;2024-03-23T05:28:43;11.30;83.54
71436;SHT31;59251;51.326;12.370;2024-03-23T05:31:09;11.83;82.35
71436;SHT31;59251;51.326;12.370;2024-03-23T05:33:37;11.75;82.80
71436;SHT31;59251;51.326;12.370;2024-03-23T05:36:04;11.42;83.52
71436;SHT31;59251;51.326;12.370;2024-03-23T05:38:34;11.72;82.71
71436;SHT31;59251;51.326;12.370;2024-03-23T05:41:00;11.79;82.14
71436;SHT31;59251;51.326;12.370;2024-03-23T05:43:28;11.92;82.55
71436;SHT31;59251;51.326;12.370;2024-03-23T05:45:54;11.99;82.58
71436;SHT31;59251;51.326;12.370;2024-03-23T05:48:21;11.95;82.52
71436;SHT31;59251;51.326;12.370;2024-03-23T05:50:48;11.52;83.68
71436;SHT31;59251;51.326;12.370;2024-03-23T05:53:15;11.26;84.20
71436;SHT31;59251;51.326;12.370;2024-03-23T05:55:41;11.42;83.99
71436;SHT31;59251;51.326;12.370;2024-03-23T05:58:07;11.54;83.79
71436;SHT31;59251;51.326;12.370;2024-03-23T06:00:33;11.20;83.59
71436;SHT31;59251;51.326;12.370;2024-03-23T06:03:00;11.64;83.38
71436;SHT31;59251;51.326;12.370;2024-03-23T06:05:26;11.54;83.79
71436;SHT31;59251;51.326;12.370;2024-03-23T06:07:54;11.57;83.88
71436;SHT31;59251;51.326;12.370;2024-03-23T06:10:20;11.74;83.13
71436;SHT31;59251;51.326;12.370;2024-03-23T06:12:47;11.23;85.25
71436;SHT31;59251;51.326;12.370;2024-03-23T06:15:14;11.45;84.42
71436;SHT31;59251;51.326;12.370;2024-03-23T06:17:40;10.86;85.45
71436;SHT31;59251;51.326;12.370;2024-03-23T06:20:08;11.18;85.02
71436;SHT31;59251;51.326;12.370;2024-03-23T06:22:33;11.41;84.65
71436;SHT31;59251;51.326;12.370;2024-03-23T06:25:02;11.51;84.24
71436;SHT31;59251;51.326;12.370;2024-03-23T06:27:28;11.62;83.68
71436;SHT31;59251;51.326;12.370;2024-03-23T06:29:54;11.72;83.28
71436;SHT31;59251;51.326;12.370;2024-03-23T06:32:20;11.54;84.55
71436;SHT31;59251;51.326;12.370;2024-03-23T06:34:47;11.69;83.53
71436;SHT31;59251;51.326;12.370;2024-03-23T06:37:13;10.96;86.13
71436;SHT31;59251;51.326;12.370;2024-03-23T06:39:39;11.38;84.97
71436;SHT31;59251;51.326;12.370;2024-03-23T06:42:06;10.72;87.32
71436;SHT31;59251;51.326;12.370;2024-03-23T06:44:34;11.06;86.66
71436;SHT31;59251;51.326;12.370;2024-03-23T06:46:59;11.21;87.23
71436;SHT31;59251;51.326;12.370;2024-03-23T06:49:26;11.54;85.89
71436;SHT31;59251;51.326;12.370;2024-03-23T06:51:52;11.48;85.86
71436;SHT31;59251;51.326;12.370;2024-03-23T06:54:19;11.38;86.33
71436;SHT31;59251;51.326;12.370;2024-03-23T06:56:45;11.37;86.06
71436;SHT31;59251;51.326;12.370;2024-03-23T06:59:13;11.48;85.95
71436;SHT31;59251;51.326;12.370;2024-03-23T07:01:39;11.44;85.84
71436;SHT31;59251;51.326;12.370;2024-03-23T07:04:06;11.51;85.64
71436;SHT31;59251;51.326;12.370;2024-03-23T07:06:31;11.55;85.17
71436;SHT31;59251;51.326;12.370;2024-03-23T07:08:58;11.62;85.78
71436;SHT31;59251;51.326;12.370;2024-03-23T07:11:24;11.76;85.12
71436;SHT31;59251;51.326;12.370;2024-03-23T07:13:51;11.71;85.66
71436;SHT31;59251;51.326;12.370;2024-03-23T07:16:19;11.65;85.47
71436;SHT31;59251;51.326;12.370;2024-03-23T07:18:45;11.50;85.63
71436;SHT31;59251;51.326;12.370;2024-03-23T07:21:11;11.37;85.86
71436;SHT31;59251;51.326;12.370;2024-03-23T07:23:38;11.31;86.47
71436;SHT31;59251;51.326;12.370;2024-03-23T07:26:07;11.13;86.92
71436;SHT31;59251;51.326;12.370;2024-03-23T07:28:34;11.16;86.82
71436;SHT31;59251;51.326;12.370;2024-03-23T07:31:05;10.69;88.09
71436;SHT31;59251;51.326;12.370;2024-03-23T07:33:33;10.69;88.49
71436;SHT31;59251;51.326;12.370;2024-03-23T07:35:59;10.56;88.12
71436;SHT31;59251;51.326;12.370;2024-03-23T07:38:26;10.70;87.95
71436;SHT31;59251;51.326;12.370;2024-03-23T07:40:52;10.38;88.69
71436;SHT31;59251;51.326;12.370;2024-03-23T07:43:21;9.82;89.36
71436;SHT31;59251;51.326;12.370;2024-03-23T07:45:51;10.93;85.92
71436;SHT31;59251;51.326;12.370;2024-03-23T07:48:18;10.17;87.47
71436;SHT31;59251;51.326;12.370;2024-03-23T07:50:45;9.97;88.03
71436;SHT31;59251;51.326;12.370;2024-03-23T07:53:12;9.46;88.27
71436;SHT31;59251;51.326;12.370;2024-03-23T07:55:38;24.02;64.83
71436;SHT31;59251;51.326;12.370;2024-03-23T07:58:04;8.98;87.59
71436;SHT31;59251;51.326;12.370;2024-03-23T08:00:31;13.57;78.17
71436;SHT31;59251;51.326;12.370;2024-03-23T08:02:58;8.28;89.99
71436;SHT31;59251;51.326;12.370;2024-03-23T08:05:26;7.29;89.35
71436;SHT31;59251;51.326;12.370;2024-03-23T08:07:54;6.41;96.09
71436;SHT31;59251;51.326;12.370;2024-03-23T08:10:19;6.25;97.10
71436;SHT31;59251;51.326;12.370;2024-03-23T08:12:46;6.01;96.75
71436;SHT31;59251;51.326;12.370;2024-03-23T08:15:12;5.09;97.38
71436;SHT31;59251;51.326;12.370;2024-03-23T08:17:39;8.33;84.27
71436;SHT31;59251;51.326;12.370;2024-03-23T08:20:06;7.85;88.88
71436;SHT31;59251;51.326;12.370;2024-03-23T08:22:33;7.37;99.99
71436;SHT31;59251;51.326;12.370;2024-03-23T08:25:00;7.32;93.51
71436;SHT31;59251;51.326;12.370;2024-03-23T08:27:27;7.52;89.94
71436;SHT31;59251;51.326;12.370;2024-03-23T08:29:53;7.44;89.65
71436;SHT31;59251;51.326;12.370;2024-03-23T08:32:20;7.70;88.44
71436;SHT31;59251;51.326;12.370;2024-03-23T08:34:45;7.74;88.24
71436;SHT31;59251;51.326;12.370;2024-03-23T08:37:12;7.77;88.01
71436;SHT31;59251;51.326;12.370;2024-03-23T08:39:38;7.11;88.96
71436;SHT31;59251;51.326;12.370;2024-03-23T08:42:06;7.69;88.19
71436;SHT31;59251;51.326;12.370;2024-03-23T08:44:33;7.25;89.13
71436;SHT31;59251;51.326;12.370;2024-03-23T08:47:01;7.47;89.46
71436;SHT31;59251;51.326;12.370;2024-03-23T08:49:26;7.18;89.39
71436;SHT31;59251;51.326;12.370;2024-03-23T08:51:53;6.87;89.74
71436;SHT31;59251;51.326;12.370;2024-03-23T08:54:20;7.01;89.59
71436;SHT31;59251;51.326;12.370;2024-03-23T08:56:48;6.98;88.87
71436;SHT31;59251;51.326;12.370;2024-03-23T08:59:15;6.98;88.89
71436;SHT31;59251;51.326;12.370;2024-03-23T09:01:42;9.62;87.87
71436;SHT31;59251;51.326;12.370;2024-03-23T09:04:08;6.50;90.73
71436;SHT31;59251;51.326;12.370;2024-03-23T09:06:35;6.38;91.05
71436;SHT31;59251;51.326;12.370;2024-03-23T09:09:01;6.50;90.79
71436;SHT31;59251;51.326;12.370;2024-03-23T09:11:27;6.46;91.62
71436;SHT31;59251;51.326;12.370;2024-03-23T09:13:53;6.47;91.30
71436;SHT31;59251;51.326;12.370;2024-03-23T09:16:21;6.58;90.78
71436;SHT31;59251;51.326;12.370;2024-03-23T09:18:47;6.60;90.87
71436;SHT31;59251;51.326;12.370;2024-03-23T09:21:14;9.40;83.54
71436;SHT31;59251;51.326;12.370;2024-03-23T09:23:40;7.27;88.70
71436;SHT31;59251;51.326;12.370;2024-03-23T09:26:07;7.32;89.29
71436;SHT31;59251;51.326;12.370;2024-03-23T09:28:33;7.66;89.49
71436;SHT31;59251;51.326;12.370;2024-03-23T09:31:02;7.66;88.04
71436;SHT31;59251;51.326;12.370;2024-03-23T09:33:29;7.98;87.95
71436;SHT31;59251;51.326;12.370;2024-03-23T09:35:56;7.57;87.81
71436;SHT31;59251;51.326;12.370;2024-03-23T09:38:22;7.63;87.92
71436;SHT31;59251;51.326;12.370;2024-03-23T09:40:52;7.34;88.18
71436;SHT31;59251;51.326;12.370;2024-03-23T09:43:19;7.08;87.89
71436;SHT31;59251;51.326;12.370;2024-03-23T09:45:46;6.85;88.20
71436;SHT31;59251;51.326;12.370;2024-03-23T09:48:12;7.22;88.64
71436;SHT31;59251;51.326;12.370;2024-03-23T09:50:42;7.12;88.48
71436;SHT31;59251;51.326;12.370;2024-03-23T09:53:09;7.13;88.14
71436;SHT31;59251;51.326;12.370;2024-03-23T09:55:37;7.53;88.25
71436;SHT31;59251;51.326;12.370;2024-03-23T09:58:03;6.99;88.92
71436;SHT31;59251;51.326;12.370;2024-03-23T10:00:30;6.87;89.12
71436;SHT31;59251;51.326;12.370;2024-03-23T10:02:56;6.92;89.73
71436;SHT31;59251;51.326;12.370;2024-03-23T10:05:23;7.01;89.61
71436;SHT31;59251;51.326;12.370;2024-03-23T10:07:50;6.85;89.30
71436;SHT31;59251;51.326;12.370;2024-03-23T10:10:18;6.88;89.83
71436;SHT31;59251;51.326;12.370;2024-03-23T10:12:45;7.19;89.27
71436;SHT31;59251;51.326;12.370;2024-03-23T10:15:18;7.04;89.05
71436;SHT31;59251;51.326;12.370;2024-03-23T10:17:44;7.09;88.60
71436;SHT31;59251;51.326;12.370;2024-03-23T10:20:11;6.60;88.90
71436;SHT31;59251;51.326;12.370;2024-03-23T10:22:37;6.63;89.62
71436;SHT31;59251;51.326;12.370;2024-03-23T10:25:08;6.85;89.07
71436;SHT31;59251;51.326;12.370;2024-03-23T10:27:34;6.99;88.09
71436;SHT31;59251;51.326;12.370;2024-03-23T10:30:08;6.87;88.16
71436;SHT31;59251;51.326;12.370;2024-03-23T10:32:35;14.12;69.06
71436;SHT31;59251;51.326;12.370;2024-03-23T10:35:19;7.32;88.20
71436;SHT31;59251;51.326;12.370;2024-03-23T10:37:47;8.42;89.61
71436;SHT31;59251;51.326;12.370;2024-03-23T10:40:16;7.05;89.45
71436;SHT31;59251;51.326;12.370;2024-03-23T10:42:43;5.82;91.90
71436;SHT31;59251;51.326;12.370;2024-03-23T10:45:09;5.31;93.88
71436;SHT31;59251;51.326;12.370;2024-03-23T10:47:37;4.74;95.51
71436;SHT31;59251;51.326;12.370;2024-03-23T10:50:04;4.67;96.29
71436;SHT31;59251;51.326;12.370;2024-03-23T10:52:32;4.41;97.36
71436;SHT31;59251;51.326;12.370;2024-03-23T10:54:58;4.54;97.71
71436;SHT31;59251;51.326;12.370;2024-03-23T10:57:31;4.62;97.81
71436;SHT31;59251;51.326;12.370;2024-03-23T11:00:02;4.54;97.38
71436;SHT31;59251;51.326;12.370;2024-03-23T11:02:29;4.62;97.46
71436;SHT31;59251;51.326;12.370;2024-03-23T11:04:55;4.68;97.18
71436;SHT31;59251;51.326;12.370;2024-03-23T11:07:28;4.81;96.92
71436;SHT31;59251;51.326;12.370;2024-03-23T11:09:55;5.10;97.75
71436;SHT31;59251;51.326;12.370;2024-03-23T11:12:26;5.16;96.99
71436;SHT31;59251;51.326;12.370;2024-03-23T11:14:55;5.20;97.14
71436;SHT31;59251;51.326;12.370;2024-03-23T11:17:24;5.12;97.09
71436;SHT31;59251;51.326;12.370;2024-03-23T11:19:53;5.26;97.21
71436;SHT31;59251;51.326;12.370;2024-03-23T11:22:43;5.33;95.97
71436;SHT31;59251;51.326;12.370;2024-03-23T11:25:19;5.29;95.72
71436;SHT31;59251;51.326;12.370;2024-03-23T11:27:48;5.61;96.87
71436;SHT31;59251;51.326;12.370;2024-03-23T11:30:17;5.62;95.08
71436;SHT31;59251;51.326;12.370;2024-03-23T11:32:44;5.70;94.59
71436;SHT31;59251;51.326;12.370;2024-03-23T11:35:11;5.95;94.93
71436;SHT31;59251;51.326;12.370;2024-03-23T11:38:02;5.99;93.20
71436;SHT31;59251;51.326;12.370;2024-03-23T11:40:28;6.22;93.89
71436;SHT31;59251;51.326;12.370;2024-03-23T11:42:55;6.37;91.73
71436;SHT31;59251;51.326;12.370;2024-03-23T11:45:23;6.60;91.16
71436;SHT31;59251;51.326;12.370;2024-03-23T11:48:02;6.91;90.18
71436;SHT31;59251;51.326;12.370;2024-03-23T11:50:27;7.42;89.71
71436;SHT31;59251;51.326;12.370;2024-03-23T11:53:06;7.37;87.78
71436;SHT31;59251;51.326;12.370;2024-03-23T11:55:39;7.52;87.32
71436;SHT31;59251;51.326;12.370;2024-03-23T11:58:06;7.42;87.02
71436;SHT31;59251;51.326;12.370;2024-03-23T12:00:34;7.61;86.28
71436;SHT31;59251;51.326;12.370;2024-03-23T12:03:01;7.92;85.67
71436;SHT31;59251;51.326;12.370;2024-03-23T12:05:27;8.64;84.92
71436;SHT31;59251;51.326;12.370;2024-03-23T12:07:54;8.56;83.17
71436;SHT31;59251;51.326;12.370;2024-03-23T12:10:20;8.77;81.81
71436;SHT31;59251;51.326;12.370;2024-03-23T12:12:59;9.14;79.68
71436;SHT31;59251;51.326;12.370;2024-03-23T12:15:25;9.25;79.38
71436;SHT31;59251;51.326;12.370;2024-03-23T12:18:06;9.67;79.50
71436;SHT31;59251;51.326;12.370;2024-03-23T12:20:31;9.74;79.53
71436;SHT31;59251;51.326;12.370;2024-03-23T12:23:05;9.11;78.20
71436;SHT31;59251;51.326;12.370;2024-03-23T12:25:31;9.05;79.33
71436;SHT31;59251;51.326;12.370;2024-03-23T12:27:59;9.19;78.64
71436;SHT31;59251;51.326;12.370;2024-03-23T12:30:24;9.00;79.20
71436;SHT31;59251;51.326;12.370;2024-03-23T12:32:51;10.48;77.40
71436;SHT31;59251;51.326;12.370;2024-03-23T12:35:18;10.69;75.61
71436;SHT31;59251;51.326;12.370;2024-03-23T12:37:45;11.42;74.60
71436;SHT31;59251;51.326;12.370;2024-03-23T12:40:11;11.82;73.02
71436;SHT31;59251;51.326;12.370;2024-03-23T12:42:37;11.86;71.53
71436;SHT31;59251;51.326;12.370;2024-03-23T12:45:04;10.90;73.29
71436;SHT31;59251;51.326;12.370;2024-03-23T12:47:31;10.52;73.97
71436;SHT31;59251;51.326;12.370;2024-03-23T12:49:56;11.58;72.69
71436;SHT31;59251;51.326;12.370;2024-03-23T12:52:24;11.81;71.66
71436;SHT31;59251;51.326;12.370;2024-03-23T12:54:55;12.19;69.71
71436;SHT31;59251;51.326;12.370;2024-03-23T12:57:23;11.71;71.73
71436;SHT31;59251;51.326;12.370;2024-03-23T12:59:49;10.96;72.11
71436;SHT31;59251;51.326;12.370;2024-03-23T13:02:18;11.50;71.13
71436;SHT31;59251;51.326;12.370;2024-03-23T13:04:45;12.33;70.09
71436;SHT31;59251;51.326;12.370;2024-03-23T13:07:12;12.78;69.08
71436;SHT31;59251;51.326;12.370;2024-03-23T13:09:40;13.47;67.29
71436;SHT31;59251;51.326;12.370;2024-03-23T13:12:07;13.56;67.11
71436;SHT31;59251;51.326;12.370;2024-03-23T13:14:33;12.32;67.99
71436;SHT31;59251;51.326;12.370;2024-03-23T13:17:00;11.66;71.22
71436;SHT31;59251;51.326;12.370;2024-03-23T13:19:27;12.36;68.44
71436;SHT31;59251;51.326;12.370;2024-03-23T13:21:56;11.38;70.81
71436;SHT31;59251;51.326;12.370;2024-03-23T13:24:22;11.87;70.24
71436;SHT31;59251;51.326;12.370;2024-03-23T13:26:51;11.03;72.75
71436;SHT31;59251;51.326;12.370;2024-03-23T13:29:17;11.68;70.76
71436;SHT31;59251;51.326;12.370;2024-03-23T13:31:44;12.06;68.88
71436;SHT31;59251;51.326;12.370;2024-03-23T13:34:10;12.55;67.55
71436;SHT31;59251;51.326;12.370;2024-03-23T13:36:36;13.97;63.56
71436;SHT31;59251;51.326;12.370;2024-03-23T13:39:02;13.92;62.80
71436;SHT31;59251;51.326;12.370;2024-03-23T13:41:37;13.60;63.66
71436;SHT31;59251;51.326;12.370;2024-03-23T13:44:04;13.92;63.13
71436;SHT31;59251;51.326;12.370;2024-03-23T13:46:31;12.91;64.08
71436;SHT31;59251;51.326;12.370;2024-03-23T13:48:57;12.20;65.83
71436;SHT31;59251;51.326;12.370;2024-03-23T13:51:24;11.55;67.23
71436;SHT31;59251;51.326;12.370;2024-03-23T13:53:50;10.97;67.56
71436;SHT31;59251;51.326;12.370;2024-03-23T13:56:17;10.18;69.64
71436;SHT31;59251;51.326;12.370;2024-03-23T13:58:43;9.63;73.18
71436;SHT31;59251;51.326;12.370;2024-03-23T14:01:14;8.16;81.66
71436;SHT31;59251;51.326;12.370;2024-03-23T14:03:40;7.09;85.31
71436;SHT31;59251;51.326;12.370;2024-03-23T14:06:07;6.89;99.99
71436;SHT31;59251;51.326;12.370;2024-03-23T14:08:34;7.06;88.57
71436;SHT31;59251;51.326;12.370;2024-03-23T14:11:02;7.20;89.79
71436;SHT31;59251;51.326;12.370;2024-03-23T14:13:29;7.59;87.24
71436;SHT31;59251;51.326;12.370;2024-03-23T14:15:57;7.43;86.32
71436;SHT31;59251;51.326;12.370;2024-03-23T14:18:24;7.36;88.03
71436;SHT31;59251;51.326;12.370;2024-03-23T14:20:52;7.43;87.37
71436;SHT31;59251;51.326;12.370;2024-03-23T14:23:18;8.03;85.98
71436;SHT31;59251;51.326;12.370;2024-03-23T14:25:45;9.87;80.55
71436;SHT31;59251;51.326;12.370;2024-03-23T14:28:11;9.83;81.83
71436;SHT31;59251;51.326;12.370;2024-03-23T14:30:41;9.05;81.74
71436;SHT31;59251;51.326;12.370;2024-03-23T14:33:07;8.56;83.98
71436;SHT31;59251;51.326;12.370;2024-03-23T14:35:35;7.84;84.08
71436;SHT31;59251;51.326;12.370;2024-03-23T14:38:01;7.12;85.16
71436;SHT31;59251;51.326;12.370;2024-03-23T14:40:27;6.77;86.34
71436;SHT31;59251;51.326;12.370;2024-03-23T14:42:54;6.61;86.71
71436;SHT31;59251;51.326;12.370;2024-03-23T14:45:21;6.47;87.00
71436;SHT31;59251;51.326;12.370;2024-03-23T14:47:47;6.37;87.96
71436;SHT31;59251;51.326;12.370;2024-03-23T14:50:14;6.30;87.96
71436;SHT31;59251;51.326;12.370;2024-03-23T14:52:43;6.16;89.79
71436;SHT31;59251;51.326;12.370;2024-03-23T14:55:11;5.81;91.67
71436;SHT31;59251;51.326;12.370;2024-03-23T14:57:36;5.74;93.31
71436;SHT31;59251;51.326;12.370;2024-03-23T15:00:06;5.65;92.24
71436;SHT31;59251;51.326;12.370;2024-03-23T15:02:33;5.62;91.59
71436;SHT31;59251;51.326;12.370;2024-03-23T15:05:00;5.47;91.68
71436;SHT31;59251;51.326;12.370;2024-03-23T15:07:25;5.44;91.69
71436;SHT31;59251;51.326;12.370;2024-03-23T15:09:55;5.47;91.94
71436;SHT31;59251;51.326;12.370;2024-03-23T15:12:21;5.31;92.91
71436;SHT31;59251;51.326;12.370;2024-03-23T15:14:48;5.48;94.15
71436;SHT31;59251;51.326;12.370;2024-03-23T15:17:14;7.40;91.94
71436;SHT31;59251;51.326;12.370;2024-03-23T15:19:41;9.21;83.63
71436;SHT31;59251;51.326;12.370;2024-03-23T15:22:08;10.88;81.90
71436;SHT31;59251;51.326;12.370;2024-03-23T15:24:35;11.27;76.94
71436;SHT31;59251;51.326;12.370;2024-03-23T15:27:03;10.15;78.26
71436;SHT31;59251;51.326;12.370;2024-03-23T15:29:30;10.97;79.17
71436;SHT31;59251;51.326;12.370;2024-03-23T15:31:56;11.09;78.31
71436;SHT31;59251;51.326;12.370;2024-03-23T15:34:23;10.45;78.23
71436;SHT31;59251;51.326;12.370;2024-03-23T15:36:49;10.53;80.88
71436;SHT31;59251;51.326;12.370;2024-03-23T15:39:16;11.52;78.94
71436;SHT31;59251;51.326;12.370;2024-03-23T15:41:44;11.44;73.40
71436;SHT31;59251;51.326;12.370;2024-03-23T15:44:12;12.67;74.06
71436;SHT31;59251;51.326;12.370;2024-03-23T15:46:38;12.81;72.78
71436;SHT31;59251;51.326;12.370;2024-03-23T15:49:05;12.85;71.75
71436;SHT31;59251;51.326;12.370;2024-03-23T15:51:31;10.97;73.77
71436;SHT31;59251;51.326;12.370;2024-03-23T15:54:00;10.22;76.42
71436;SHT31;59251;51.326;12.370;2024-03-23T15:56:26;9.31;78.56
71436;SHT31;59251;51.326;12.370;2024-03-23T15:58:53;9.26;79.21
71436;SHT31;59251;51.326;12.370;2024-03-23T16:01:20;8.90;80.68
71436;SHT31;59251;51.326;12.370;2024-03-23T16:03:47;8.78;79.77
71436;SHT31;59251;51.326;12.370;2024-03-23T16:06:13;8.56;80.66
71436;SHT31;59251;51.326;12.370;2024-03-23T16:08:40;8.30;81.89
71436;SHT31;59251;51.326;12.370;2024-03-23T16:11:06;8.25;82.00
71436;SHT31;59251;51.326;12.370;2024-03-23T16:13:34;8.18;82.96
71436;SHT31;59251;51.326;12.370;2024-03-23T16:16:01;8.08;82.56